Time;durP1;ratioP1;P1;durP2;ratioP2;P2;SDS_P1;SDS_P2;PMS_P1;PMS_P2;Temp;Humidity;BMP_temperature;BMP_pressure;BME280_temperature;BME280_humidity;BME280_pressure;Samples;Min_cycle;Max_cycle;Signal;HPM_P1;HPM_P2
2023/01/08 00:01:06;;;;;;;112.90;62.20;;;;;;;;;;4423905;32;318655;-78
2023/01/08 00:03:34;;;;;;;114.57;63.07;;;;;;;;;;4415405;32;319472;-79
2023/01/08 00:06:02;;;;;;;123.60;64.87;;;;;;;;;;4417710;32;318467;-78
2023/01/08 00:08:29;;;;;;;125.53;68.73;;;;;;;;;;4406393;32;319143;-78
2023/01/08 00:10:56;;;;;;;128.07;67.70;;;;;;;;;;4415486;32;319286;-84
2023/01/08 00:13:23;;;;;;;128.67;72.00;;;;;;;;;;4412693;32;319030;-79
2023/01/08 00:15:50;;;;;;;134.17;75.93;;;;;;;;;;4402304;32;338311;-82
2023/01/08 00:18:16;;;;;;;138.23;75.17;;;;;;;;;;4413954;32;319634;-82
2023/01/08 00:20:45;;;;;;;125.73;73.23;;;;;;;;;;4403419;32;319314;-81
2023/01/08 00:23:13;;;;;;;133.93;76.03;;;;;;;;;;4413863;32;319359;-81
2023/01/08 00:25:39;;;;;;;151.90;83.00;;;;;;;;;;4402765;32;321794;-80
2023/01/08 00:28:06;;;;;;;173.90;92.90;;;;;;;;;;4413110;32;319914;-85
2023/01/08 00:30:33;;;;;;;175.43;99.60;;;;;;;;;;4404012;32;319456;-82
2023/01/08 00:33:00;;;;;;;182.40;99.97;;;;;;;;;;4413730;32;319601;-85
2023/01/08 00:35:27;;;;;;;214.67;113.93;;;;;;;;;;4402973;32;319352;-85
2023/01/08 00:37:55;;;;;;;271.30;133.20;;;;;;;;;;4412458;32;322662;-81
2023/01/08 00:40:22;;;;;;;250.00;129.90;;;;;;;;;;4412368;32;319917;-88
2023/01/08 00:42:48;;;;;;;289.00;140.70;;;;;;;;;;4400540;32;335307;-81
2023/01/08 00:45:15;;;;;;;265.63;143.23;;;;;;;;;;4413415;32;320416;-82
2023/01/08 00:47:42;;;;;;;259.80;136.63;;;;;;;;;;4403497;32;320185;-79
2023/01/08 00:50:10;;;;;;;269.00;137.40;;;;;;;;;;4398319;32;319654;-80
2023/01/08 00:52:37;;;;;;;253.80;131.90;;;;;;;;;;4387356;32;360440;-84
2023/01/08 00:55:06;;;;;;;204.87;108.87;;;;;;;;;;4396765;32;320798;-79
2023/01/08 00:57:33;;;;;;;173.33;93.90;;;;;;;;;;4386513;32;319972;-85
2023/01/08 01:00:00;;;;;;;138.33;74.10;;;;;;;;;;4398069;32;319609;-82
2023/01/08 01:02:27;;;;;;;113.80;62.70;;;;;;;;;;4387394;32;318792;-79
2023/01/08 01:04:54;;;;;;;124.60;60.90;;;;;;;;;;4398124;32;319576;-80
2023/01/08 01:07:21;;;;;;;92.50;51.67;;;;;;;;;;4406872;32;319870;-83
2023/01/08 01:09:48;;;;;;;76.07;43.87;;;;;;;;;;4403630;32;317678;-80
2023/01/08 01:12:16;;;;;;;100.27;54.17;;;;;;;;;;4415791;32;318086;-81
2023/01/08 01:14:43;;;;;;;100.30;49.03;;;;;;;;;;4401521;32;319036;-90
2023/01/08 01:17:11;;;;;;;96.77;48.73;;;;;;;;;;4411852;32;319540;-83
2023/01/08 01:19:37;;;;;;;99.20;47.47;;;;;;;;;;4403371;32;318225;-83
2023/01/08 01:22:05;;;;;;;91.00;45.67;;;;;;;;;;4413577;32;317661;-81
2023/01/08 01:24:31;;;;;;;80.10;40.20;;;;;;;;;;4402414;32;359312;-84
2023/01/08 01:27:00;;;;;;;66.13;37.53;;;;;;;;;;4413624;32;317523;-85
2023/01/08 01:29:28;;;;;;;68.60;37.57;;;;;;;;;;4401558;32;318304;-82
2023/01/08 01:31:55;;;;;;;71.37;38.10;;;;;;;;;;4412086;32;317777;-81
2023/01/08 01:34:21;;;;;;;66.77;36.53;;;;;;;;;;4413054;32;318631;-78
2023/01/08 01:36:48;;;;;;;86.00;40.80;;;;;;;;;;4403284;32;317575;-81
2023/01/08 01:39:15;;;;;;;91.57;44.50;;;;;;;;;;4411705;32;317573;-83
2023/01/08 01:41:44;;;;;;;78.90;42.33;;;;;;;;;;4401570;32;317691;-83
2023/01/08 01:44:40;;;;;;;80.10;41.87;;;;;;;;;;4410961;32;358130;-80
2023/01/08 01:47:15;;;;;;;80.73;44.17;;;;;;;;;;4399923;32;417190;-83
2023/01/08 01:49:53;;;;;;;88.43;44.83;;;;;;;;;;4403071;32;318424;-82
2023/01/08 01:52:21;;;;;;;84.57;43.20;;;;;;;;;;4411956;32;318441;-84
2023/01/08 01:54:49;;;;;;;79.33;40.43;;;;;;;;;;4401494;32;331446;-79
2023/01/08 01:57:17;;;;;;;80.70;43.57;;;;;;;;;;4414258;32;317650;-80
2023/01/08 01:59:47;;;;;;;101.10;48.73;;;;;;;;;;4406077;32;318335;-82
2023/01/08 02:02:14;;;;;;;109.57;54.53;;;;;;;;;;4419152;32;319275;-79
2023/01/08 02:04:42;;;;;;;118.30;62.00;;;;;;;;;;4407070;32;318609;-83
2023/01/08 02:07:15;;;;;;;122.40;67.13;;;;;;;;;;4416107;32;319140;-79
2023/01/08 02:09:48;;;;;;;120.80;63.00;;;;;;;;;;4405697;32;319231;-84
2023/01/08 02:12:20;;;;;;;127.13;66.87;;;;;;;;;;4400168;32;319193;-80
2023/01/08 02:15:07;;;;;;;135.10;70.67;;;;;;;;;;4389776;32;319360;-79
2023/01/08 02:17:39;;;;;;;125.87;68.93;;;;;;;;;;4390194;32;319466;-80
2023/01/08 02:20:11;;;;;;;156.47;83.40;;;;;;;;;;4399315;32;318747;-78
2023/01/08 02:22:48;;;;;;;172.77;93.90;;;;;;;;;;4389477;32;319525;-84
2023/01/08 02:25:29;;;;;;;176.00;92.17;;;;;;;;;;4400315;32;319439;-79
2023/01/08 02:28:00;;;;;;;193.97;99.73;;;;;;;;;;4387254;32;421196;-81
2023/01/08 02:30:27;;;;;;;184.60;101.10;;;;;;;;;;4389163;32;319746;-81
2023/01/08 02:32:54;;;;;;;203.67;103.23;;;;;;;;;;4399199;32;319729;-82
2023/01/08 02:35:21;;;;;;;176.00;92.43;;;;;;;;;;4400409;32;320262;-81
2023/01/08 02:37:48;;;;;;;189.73;98.57;;;;;;;;;;4390714;32;319458;-79
2023/01/08 02:40:25;;;;;;;175.07;92.27;;;;;;;;;;4400389;32;318731;-82
2023/01/08 02:42:59;;;;;;;172.67;91.70;;;;;;;;;;4405217;32;418227;-82
2023/01/08 02:45:39;;;;;;;194.03;102.97;;;;;;;;;;4409795;32;318864;-85
2023/01/08 02:48:14;;;;;;;180.90;98.90;;;;;;;;;;4401983;32;419684;-87
2023/01/08 02:50:44;;;;;;;204.03;99.13;;;;;;;;;;4398306;32;318780;-79
2023/01/08 02:53:15;;;;;;;204.00;107.30;;;;;;;;;;4400288;32;319288;-85
2023/01/08 02:55:47;;;;;;;197.87;104.57;;;;;;;;;;4388849;32;320415;-86
2023/01/08 02:58:16;;;;;;;197.93;105.07;;;;;;;;;;4398367;32;320344;-79
2023/01/08 03:00:46;;;;;;;215.83;104.63;;;;;;;;;;4386116;32;320658;-82
2023/01/08 03:03:17;;;;;;;199.40;101.20;;;;;;;;;;4403513;32;319734;-81
2023/01/08 03:05:48;;;;;;;179.17;96.73;;;;;;;;;;4388476;32;320304;-81
2023/01/08 03:08:16;;;;;;;169.17;88.37;;;;;;;;;;4412641;32;318985;-84
2023/01/08 03:10:47;;;;;;;169.87;89.57;;;;;;;;;;4404207;32;347085;-84
2023/01/08 03:13:21;;;;;;;174.57;91.80;;;;;;;;;;4414737;32;318788;-80
2023/01/08 03:15:53;;;;;;;173.83;90.70;;;;;;;;;;4403763;32;319460;-85
2023/01/08 03:18:24;;;;;;;171.40;91.63;;;;;;;;;;4413767;32;319128;-86
2023/01/08 03:20:51;;;;;;;165.37;88.53;;;;;;;;;;4400789;32;419828;-80
2023/01/08 03:23:21;;;;;;;157.60;84.67;;;;;;;;;;4413980;32;319585;-85
2023/01/08 03:25:48;;;;;;;154.77;84.13;;;;;;;;;;4403512;32;319244;-86
2023/01/08 03:28:22;;;;;;;172.90;81.73;;;;;;;;;;4413101;32;319129;-87
2023/01/08 03:30:50;;;;;;;170.10;82.17;;;;;;;;;;4403283;32;319214;-83
2023/01/08 03:33:19;;;;;;;176.87;88.20;;;;;;;;;;4414868;32;319139;-83
2023/01/08 03:35:50;;;;;;;170.83;88.90;;;;;;;;;;4403371;32;319186;-80
2023/01/08 03:38:23;;;;;;;168.87;88.67;;;;;;;;;;4414433;32;318529;-81
2023/01/08 03:40:54;;;;;;;166.60;86.13;;;;;;;;;;4402464;32;319250;-85
2023/01/08 03:43:22;;;;;;;153.20;81.37;;;;;;;;;;4412892;32;318442;-81
2023/01/08 03:45:54;;;;;;;158.90;83.83;;;;;;;;;;4404520;32;318683;-82
2023/01/08 03:48:21;;;;;;;160.37;82.67;;;;;;;;;;4414502;32;319237;-85
2023/01/08 03:50:48;;;;;;;163.30;78.03;;;;;;;;;;4404496;32;319042;-79
2023/01/08 03:53:15;;;;;;;115.00;61.77;;;;;;;;;;4413221;32;318835;-79
2023/01/08 03:55:42;;;;;;;76.10;43.87;;;;;;;;;;4404389;32;319366;-83
2023/01/08 03:58:09;;;;;;;77.37;40.00;;;;;;;;;;4412803;32;317716;-82
2023/01/08 04:00:37;;;;;;;80.10;38.97;;;;;;;;;;4402395;32;347793;-81
2023/01/08 04:03:04;;;;;;;95.47;48.47;;;;;;;;;;4412792;32;317920;-81
2023/01/08 04:05:31;;;;;;;99.93;54.47;;;;;;;;;;4400908;32;356343;-80
2023/01/08 04:07:58;;;;;;;100.53;57.17;;;;;;;;;;4414015;32;318268;-81
2023/01/08 04:10:25;;;;;;;97.20;49.47;;;;;;;;;;4413979;32;318424;-81
2023/01/08 04:12:53;;;;;;;80.60;45.00;;;;;;;;;;4399837;32;417549;-83
2023/01/08 04:15:19;;;;;;;80.67;41.53;;;;;;;;;;4414153;32;317696;-84
2023/01/08 04:17:48;;;;;;;80.77;37.47;;;;;;;;;;4403798;32;317521;-81
2023/01/08 04:20:14;;;;;;;76.20;37.40;;;;;;;;;;4413921;32;318228;-81
2023/01/08 04:22:41;;;;;;;63.07;34.43;;;;;;;;;;4404458;32;318209;-81
2023/01/08 04:25:08;;;;;;;60.10;33.30;;;;;;;;;;4412863;32;318432;-83
2023/01/08 04:27:36;;;;;;;60.10;33.90;;;;;;;;;;4403661;32;318166;-80
2023/01/08 04:30:03;;;;;;;62.43;33.00;;;;;;;;;;4413802;32;318264;-80
2023/01/08 04:32:30;;;;;;;74.87;39.50;;;;;;;;;;4396861;32;318627;-80
2023/01/08 04:34:58;;;;;;;95.27;49.53;;;;;;;;;;4422120;32;318673;-80
2023/01/08 04:37:24;;;;;;;92.77;47.17;;;;;;;;;;4407095;32;317555;-78
2023/01/08 04:39:51;;;;;;;122.17;62.30;;;;;;;;;;4406515;32;417575;-82
2023/01/08 04:42:18;;;;;;;120.00;59.87;;;;;;;;;;4411741;32;319424;-79
2023/01/08 04:44:45;;;;;;;137.10;68.60;;;;;;;;;;4402333;32;318903;-82
2023/01/08 04:47:13;;;;;;;159.23;70.57;;;;;;;;;;4413771;32;319947;-79
2023/01/08 04:49:40;;;;;;;138.90;68.13;;;;;;;;;;4403341;32;329620;-81
2023/01/08 04:52:08;;;;;;;145.17;69.73;;;;;;;;;;4413637;32;319336;-80
2023/01/08 04:54:35;;;;;;;142.23;69.13;;;;;;;;;;4401532;32;318677;-82
2023/01/08 04:57:09;;;;;;;141.80;66.13;;;;;;;;;;4410778;32;318547;-80
2023/01/08 04:59:35;;;;;;;188.33;81.60;;;;;;;;;;4403509;32;319628;-79
2023/01/08 05:02:02;;;;;;;176.27;75.27;;;;;;;;;;4413178;32;319648;-80
2023/01/08 05:04:29;;;;;;;168.47;73.50;;;;;;;;;;4403459;32;319253;-81
2023/01/08 05:06:56;;;;;;;180.63;75.73;;;;;;;;;;4413321;32;319321;-79
2023/01/08 05:09:24;;;;;;;201.67;85.03;;;;;;;;;;4412012;32;319405;-84
2023/01/08 05:11:51;;;;;;;219.13;87.27;;;;;;;;;;4398991;32;418695;-81
2023/01/08 05:14:18;;;;;;;198.70;81.97;;;;;;;;;;4412862;32;334603;-79
2023/01/08 05:16:45;;;;;;;174.50;76.20;;;;;;;;;;4402991;32;322719;-79
2023/01/08 05:19:12;;;;;;;176.33;69.17;;;;;;;;;;4412984;32;319447;-80
2023/01/08 05:21:38;;;;;;;183.90;66.13;;;;;;;;;;4403656;32;319288;-78
2023/01/08 05:24:06;;;;;;;179.97;63.57;;;;;;;;;;4413584;32;319280;-81
2023/01/08 05:26:34;;;;;;;153.80;62.83;;;;;;;;;;4403048;32;319712;-83
2023/01/08 05:29:01;;;;;;;132.17;56.50;;;;;;;;;;4412799;32;319608;-85
2023/01/08 05:31:28;;;;;;;113.27;49.67;;;;;;;;;;4401652;32;319830;-82
2023/01/08 05:33:57;;;;;;;125.87;53.47;;;;;;;;;;4412485;32;317670;-81
2023/01/08 05:36:23;;;;;;;129.70;53.57;;;;;;;;;;4412457;32;318750;-81
2023/01/08 05:38:50;;;;;;;160.60;61.97;;;;;;;;;;4403707;32;318727;-80
2023/01/08 05:41:17;;;;;;;199.20;73.60;;;;;;;;;;4413351;32;318960;-80
2023/01/08 05:43:45;;;;;;;156.23;67.33;;;;;;;;;;4403684;32;349180;-83
2023/01/08 05:46:12;;;;;;;144.23;62.80;;;;;;;;;;4414217;32;319368;-79
2023/01/08 05:48:39;;;;;;;153.40;66.87;;;;;;;;;;4405932;32;319065;-80
2023/01/08 05:51:07;;;;;;;129.73;57.37;;;;;;;;;;4416215;32;318626;-78
2023/01/08 05:53:33;;;;;;;139.07;58.60;;;;;;;;;;4406445;32;319459;-80
2023/01/08 05:56:01;;;;;;;125.97;57.93;;;;;;;;;;4414962;32;318474;-82
2023/01/08 05:58:28;;;;;;;125.33;55.00;;;;;;;;;;4394219;32;318401;-78
2023/01/08 06:01:02;;;;;;;151.53;60.17;;;;;;;;;;4398868;32;319433;-84
2023/01/08 06:03:29;;;;;;;156.13;62.93;;;;;;;;;;4388673;32;319460;-80
2023/01/08 06:05:58;;;;;;;159.47;63.13;;;;;;;;;;4398347;32;319313;-78
2023/01/08 06:08:25;;;;;;;141.73;61.40;;;;;;;;;;4397369;32;319513;-78
2023/01/08 06:10:52;;;;;;;162.30;73.70;;;;;;;;;;4385313;32;419967;-78
2023/01/08 06:13:19;;;;;;;172.87;74.87;;;;;;;;;;4399168;32;318479;-78
2023/01/08 06:15:45;;;;;;;199.73;89.07;;;;;;;;;;4387671;32;319441;-82
2023/01/08 06:18:13;;;;;;;176.50;78.30;;;;;;;;;;4396546;32;319705;-79
2023/01/08 06:20:41;;;;;;;173.10;72.83;;;;;;;;;;4386576;32;318633;-82
2023/01/08 06:23:08;;;;;;;171.97;77.67;;;;;;;;;;4398522;32;319869;-81
2023/01/08 06:25:35;;;;;;;182.77;83.00;;;;;;;;;;4389421;32;319000;-80
2023/01/08 06:28:02;;;;;;;185.87;87.87;;;;;;;;;;4421293;32;318414;-80
2023/01/08 06:30:30;;;;;;;182.33;86.47;;;;;;;;;;4410466;32;318456;-83
2023/01/08 06:32:57;;;;;;;193.90;90.03;;;;;;;;;;4427163;32;317191;-84
2023/01/08 06:35:25;;;;;;;196.67;85.97;;;;;;;;;;4431303;32;318266;-83
2023/01/08 06:37:54;;;;;;;199.33;107.27;;;;;;;;;;4400815;32;418076;-84
2023/01/08 06:40:20;;;;;;;190.17;95.90;;;;;;;;;;4412407;32;320476;-78
2023/01/08 06:42:47;;;;;;;188.53;90.63;;;;;;;;;;4403320;32;319765;-80
2023/01/08 06:45:14;;;;;;;166.33;79.23;;;;;;;;;;4414179;32;356778;-83
2023/01/08 06:47:41;;;;;;;171.40;81.10;;;;;;;;;;4399137;32;318925;-79
2023/01/08 06:50:08;;;;;;;190.40;87.30;;;;;;;;;;4422750;32;352254;-79
2023/01/08 06:52:36;;;;;;;185.73;85.20;;;;;;;;;;4404052;32;319422;-85
2023/01/08 06:55:04;;;;;;;202.57;97.70;;;;;;;;;;4414226;32;319502;-82
2023/01/08 06:57:31;;;;;;;222.93;106.73;;;;;;;;;;4403797;32;319179;-81
2023/01/08 06:59:58;;;;;;;199.60;103.97;;;;;;;;;;4413745;32;320725;-81
2023/01/08 07:02:25;;;;;;;201.20;100.00;;;;;;;;;;4416294;32;319673;-81
2023/01/08 07:04:52;;;;;;;241.43;114.53;;;;;;;;;;4401883;32;419496;-81
2023/01/08 07:07:18;;;;;;;197.53;99.97;;;;;;;;;;4414884;32;320344;-88
2023/01/08 07:09:47;;;;;;;176.50;92.63;;;;;;;;;;4403639;32;319416;-84
2023/01/08 07:12:14;;;;;;;155.87;84.10;;;;;;;;;;4417554;32;319321;-82
2023/01/08 07:14:41;;;;;;;156.53;82.23;;;;;;;;;;4406116;32;319354;-84
2023/01/08 07:17:07;;;;;;;151.73;77.07;;;;;;;;;;4414831;32;319719;-78
2023/01/08 07:19:34;;;;;;;156.40;83.20;;;;;;;;;;4403606;32;319363;-81
2023/01/08 07:22:01;;;;;;;172.73;93.00;;;;;;;;;;4413982;32;319425;-79
2023/01/08 07:24:28;;;;;;;181.00;92.30;;;;;;;;;;4404822;32;319669;-84
2023/01/08 07:26:56;;;;;;;171.60;85.50;;;;;;;;;;4414156;32;319206;-83
2023/01/08 07:29:23;;;;;;;170.07;89.03;;;;;;;;;;4413501;32;319757;-81
2023/01/08 07:31:50;;;;;;;218.50;111.30;;;;;;;;;;4404521;32;319383;-82
2023/01/08 07:34:16;;;;;;;242.67;115.10;;;;;;;;;;4414456;32;319672;-80
2023/01/08 07:36:43;;;;;;;237.93;122.23;;;;;;;;;;4397008;32;319947;-81
2023/01/08 07:39:10;;;;;;;277.90;138.07;;;;;;;;;;4396678;32;358439;-81
2023/01/08 07:41:37;;;;;;;283.00;141.13;;;;;;;;;;4396836;32;320098;-85
2023/01/08 07:44:05;;;;;;;244.47;105.30;;;;;;;;;;4414216;32;320379;-84
2023/01/08 07:46:32;;;;;;;167.40;80.20;;;;;;;;;;4404356;32;320200;-80
2023/01/08 07:49:01;;;;;;;165.97;71.43;;;;;;;;;;4414099;32;319483;-84
2023/01/08 07:51:28;;;;;;;142.00;68.03;;;;;;;;;;4408466;32;319712;-81
2023/01/08 07:53:56;;;;;;;150.57;80.83;;;;;;;;;;4412405;32;319909;-84
2023/01/08 07:56:23;;;;;;;159.83;78.27;;;;;;;;;;4413731;32;319444;-81
2023/01/08 07:58:50;;;;;;;153.07;75.00;;;;;;;;;;4402748;32;318866;-86
2023/01/08 08:01:18;;;;;;;129.80;72.83;;;;;;;;;;4413005;32;318952;-88
2023/01/08 08:03:46;;;;;;;116.73;65.70;;;;;;;;;;4402372;32;342310;-83
2023/01/08 08:06:14;;;;;;;101.47;57.77;;;;;;;;;;4412834;32;318891;-84
2023/01/08 08:08:41;;;;;;;91.50;55.43;;;;;;;;;;4403890;32;318816;-80
2023/01/08 08:11:08;;;;;;;133.20;58.23;;;;;;;;;;4410152;32;317739;-83
2023/01/08 08:13:35;;;;;;;101.07;58.63;;;;;;;;;;4403946;32;319185;-84
2023/01/08 08:16:03;;;;;;;92.20;54.80;;;;;;;;;;4413878;32;318782;-82
2023/01/08 08:18:32;;;;;;;99.40;58.03;;;;;;;;;;4403910;32;317648;-78
2023/01/08 08:21:00;;;;;;;103.53;59.83;;;;;;;;;;4414201;32;318510;-82
2023/01/08 08:23:27;;;;;;;107.00;57.97;;;;;;;;;;4400438;32;358716;-80
2023/01/08 08:25:54;;;;;;;115.07;59.53;;;;;;;;;;4412415;32;319093;-81
2023/01/08 08:28:21;;;;;;;129.40;69.33;;;;;;;;;;4413858;32;319725;-84
2023/01/08 08:30:48;;;;;;;105.57;59.60;;;;;;;;;;4403716;32;319490;-80
2023/01/08 08:33:14;;;;;;;112.73;60.57;;;;;;;;;;4412630;32;319513;-80
2023/01/08 08:35:48;;;;;;;115.50;64.10;;;;;;;;;;4402082;32;337091;-81
2023/01/08 08:38:15;;;;;;;122.83;69.70;;;;;;;;;;4412945;32;318655;-83
2023/01/08 08:40:43;;;;;;;107.20;68.70;;;;;;;;;;4402011;32;355768;-82
2023/01/08 08:43:10;;;;;;;114.37;69.00;;;;;;;;;;4412872;32;319732;-83
2023/01/08 08:45:36;;;;;;;111.73;66.83;;;;;;;;;;4403242;32;319196;-82
2023/01/08 08:48:06;;;;;;;110.70;58.90;;;;;;;;;;4412227;32;319145;-80
2023/01/08 08:50:33;;;;;;;108.63;62.90;;;;;;;;;;4402752;32;318898;-80
2023/01/08 08:53:02;;;;;;;108.80;57.47;;;;;;;;;;4411668;32;318549;-80
2023/01/08 08:55:29;;;;;;;128.73;70.63;;;;;;;;;;4402048;32;319316;-80
2023/01/08 08:58:02;;;;;;;119.17;71.30;;;;;;;;;;4413280;32;319498;-82
2023/01/08 09:00:29;;;;;;;108.33;65.37;;;;;;;;;;4403307;32;318798;-81
2023/01/08 09:02:56;;;;;;;124.13;68.83;;;;;;;;;;4413260;32;318641;-81
2023/01/08 09:05:22;;;;;;;122.23;64.87;;;;;;;;;;4413354;32;319143;-81
2023/01/08 09:07:49;;;;;;;127.67;70.37;;;;;;;;;;4402107;32;318716;-81
2023/01/08 09:10:17;;;;;;;130.27;76.33;;;;;;;;;;4408486;32;320582;-83
2023/01/08 09:12:44;;;;;;;108.97;63.30;;;;;;;;;;4401379;32;318610;-85
2023/01/08 09:15:11;;;;;;;115.43;66.33;;;;;;;;;;4412914;32;319754;-78
2023/01/08 09:17:38;;;;;;;107.17;65.47;;;;;;;;;;4402033;32;319212;-80
2023/01/08 09:20:06;;;;;;;126.13;70.77;;;;;;;;;;4412752;32;318559;-82
2023/01/08 09:22:33;;;;;;;115.40;66.63;;;;;;;;;;4403216;32;318828;-82
2023/01/08 09:24:59;;;;;;;137.00;69.63;;;;;;;;;;4412869;32;319289;-81
2023/01/08 09:27:27;;;;;;;131.77;71.27;;;;;;;;;;4411989;32;319453;-83
2023/01/08 09:29:54;;;;;;;122.80;68.70;;;;;;;;;;4397926;32;418746;-79
2023/01/08 09:32:21;;;;;;;127.63;69.70;;;;;;;;;;4411868;32;319208;-78
2023/01/08 09:34:48;;;;;;;127.37;65.00;;;;;;;;;;4403208;32;319495;-83
2023/01/08 09:37:15;;;;;;;113.30;65.87;;;;;;;;;;4403366;32;319295;-79
2023/01/08 09:39:41;;;;;;;116.10;63.40;;;;;;;;;;4386303;32;319427;-80
2023/01/08 09:42:11;;;;;;;108.83;62.17;;;;;;;;;;4411989;32;339559;-82
2023/01/08 09:44:43;;;;;;;99.70;56.77;;;;;;;;;;4403116;32;319613;-83
2023/01/08 09:47:22;;;;;;;124.67;70.60;;;;;;;;;;4411949;32;317590;-82
2023/01/08 09:49:49;;;;;;;95.93;49.13;;;;;;;;;;4402735;32;318926;-80
2023/01/08 09:52:18;;;;;;;82.60;48.63;;;;;;;;;;4412189;32;318836;-83
2023/01/08 09:54:45;;;;;;;78.67;48.33;;;;;;;;;;4402737;32;318394;-80
2023/01/08 09:57:16;;;;;;;87.57;51.57;;;;;;;;;;4411758;32;318407;-80
2023/01/08 09:59:46;;;;;;;102.47;54.90;;;;;;;;;;4401813;32;317762;-80
2023/01/08 10:02:15;;;;;;;86.60;44.87;;;;;;;;;;4413032;32;319243;-79
2023/01/08 10:04:44;;;;;;;77.57;46.73;;;;;;;;;;4403890;32;318552;-82
2023/01/08 10:07:20;;;;;;;85.73;46.60;;;;;;;;;;4404909;32;318210;-79
2023/01/08 10:09:47;;;;;;;78.27;45.87;;;;;;;;;;4387589;32;317529;-80
2023/01/08 10:12:14;;;;;;;91.73;53.47;;;;;;;;;;4413918;32;316558;-78
2023/01/08 10:14:48;;;;;;;127.10;63.93;;;;;;;;;;4416066;32;318147;-80
2023/01/08 10:17:26;;;;;;;145.97;77.67;;;;;;;;;;4422096;32;318941;-81
2023/01/08 10:19:52;;;;;;;706.83;363.30;;;;;;;;;;4406165;32;418465;-80
2023/01/08 10:22:21;;;;;;;646.57;313.77;;;;;;;;;;4422054;32;319771;-81
2023/01/08 10:24:48;;;;;;;162.20;91.10;;;;;;;;;;4406095;32;320607;-84
2023/01/08 10:27:18;;;;;;;115.43;67.37;;;;;;;;;;4415292;32;319255;-81
2023/01/08 10:29:45;;;;;;;125.70;77.33;;;;;;;;;;4406563;32;318824;-78
2023/01/08 10:32:15;;;;;;;111.47;65.83;;;;;;;;;;4409574;32;319631;-81
2023/01/08 10:34:47;;;;;;;105.60;62.40;;;;;;;;;;4407745;32;318756;-84
2023/01/08 10:37:17;;;;;;;95.33;58.20;;;;;;;;;;4416354;32;319289;-79
2023/01/08 10:39:47;;;;;;;103.73;61.87;;;;;;;;;;4405781;32;317652;-79
2023/01/08 10:42:18;;;;;;;118.03;63.63;;;;;;;;;;4414678;32;319243;-80
2023/01/08 10:44:54;;;;;;;74.77;46.07;;;;;;;;;;4404878;32;319251;-80
2023/01/08 10:47:22;;;;;;;83.17;47.73;;;;;;;;;;4414883;32;318532;-78
2023/01/08 10:49:50;;;;;;;73.73;46.33;;;;;;;;;;4403038;32;317281;-79
2023/01/08 10:52:26;;;;;;;80.80;48.07;;;;;;;;;;4416411;32;317535;-80
2023/01/08 10:54:53;;;;;;;86.40;50.10;;;;;;;;;;4403635;32;418771;-84
2023/01/08 10:57:26;;;;;;;83.77;50.60;;;;;;;;;;4416162;32;318032;-80
2023/01/08 10:59:53;;;;;;;86.63;48.10;;;;;;;;;;4403783;32;417501;-78
2023/01/08 11:02:29;;;;;;;79.20;49.93;;;;;;;;;;4416102;32;318373;-84
2023/01/08 11:04:59;;;;;;;134.47;87.63;;;;;;;;;;4402762;32;417508;-83
2023/01/08 11:07:26;;;;;;;82.90;54.73;;;;;;;;;;4416221;32;319168;-84
2023/01/08 11:09:54;;;;;;;76.53;50.50;;;;;;;;;;4402427;32;417479;-78
2023/01/08 11:12:34;;;;;;;67.83;44.57;;;;;;;;;;4419511;32;317722;-83
2023/01/08 11:15:01;;;;;;;75.40;45.83;;;;;;;;;;4403101;32;417543;-79
2023/01/08 11:17:30;;;;;;;84.90;48.57;;;;;;;;;;4405861;32;317524;-86
2023/01/08 11:20:09;;;;;;;76.73;46.97;;;;;;;;;;4415898;32;318069;-79
2023/01/08 11:22:36;;;;;;;120.00;64.40;;;;;;;;;;4406090;32;317633;-79
2023/01/08 11:25:03;;;;;;;170.90;81.90;;;;;;;;;;4414616;32;319784;-80
2023/01/08 11:27:32;;;;;;;97.37;55.83;;;;;;;;;;4405620;32;320395;-80
2023/01/08 11:30:04;;;;;;;82.13;51.87;;;;;;;;;;4409847;32;318841;-78
2023/01/08 11:32:41;;;;;;;73.03;46.10;;;;;;;;;;4411429;32;380456;-78
2023/01/08 11:35:19;;;;;;;85.53;49.73;;;;;;;;;;4414910;32;319408;-81
2023/01/08 11:37:50;;;;;;;68.40;44.57;;;;;;;;;;4390368;32;318885;-81
2023/01/08 11:40:22;;;;;;;62.57;38.87;;;;;;;;;;4400716;32;318687;-94
2023/01/08 11:43:07;;;;;;;58.03;37.23;;;;;;;;;;4388618;32;319341;-80
2023/01/08 11:45:41;;;;;;;102.07;57.63;;;;;;;;;;4391582;32;318768;-80
2023/01/08 11:48:34;;;;;;;156.87;75.63;;;;;;;;;;4401073;32;320072;-80
2023/01/08 11:51:29;;;;;;;75.90;43.33;;;;;;;;;;4383102;32;420442;-78
2023/01/08 11:54:05;;;;;;;46.27;28.53;;;;;;;;;;4393789;32;418543;-84
2023/01/08 11:56:47;;;;;;;54.93;32.30;;;;;;;;;;4390270;32;318255;-80
2023/01/08 11:59:23;;;;;;;52.53;33.90;;;;;;;;;;4399467;32;318250;-80
2023/01/08 12:02:01;;;;;;;58.60;35.77;;;;;;;;;;4401777;32;318217;-82
2023/01/08 12:04:51;;;;;;;78.00;46.43;;;;;;;;;;4408639;32;318224;-81
2023/01/08 12:07:24;;;;;;;58.20;38.17;;;;;;;;;;4417960;32;317377;-79
2023/01/08 12:09:58;;;;;;;60.30;38.57;;;;;;;;;;4404145;32;318076;-80
2023/01/08 12:12:40;;;;;;;62.67;38.13;;;;;;;;;;4423658;32;318151;-79
2023/01/08 12:15:16;;;;;;;63.40;39.60;;;;;;;;;;4409383;32;418371;-78
2023/01/08 12:18:16;;;;;;;69.17;43.07;;;;;;;;;;4409142;32;317438;-81
2023/01/08 12:20:50;;;;;;;60.73;38.13;;;;;;;;;;4374302;32;318466;-80
2023/01/08 12:23:32;;;;;;;79.47;48.37;;;;;;;;;;4415095;32;317738;-80
2023/01/08 12:26:18;;;;;;;71.70;47.30;;;;;;;;;;4402985;32;419863;-75
2023/01/08 12:29:10;;;;;;;71.40;41.37;;;;;;;;;;4406206;32;318360;-79
2023/01/08 12:32:06;;;;;;;57.67;37.30;;;;;;;;;;4404687;32;318096;-80
2023/01/08 12:34:43;;;;;;;51.73;34.90;;;;;;;;;;4389370;32;318162;-81
2023/01/08 12:37:15;;;;;;;59.20;38.13;;;;;;;;;;4399201;32;318334;-80
2023/01/08 12:39:51;;;;;;;67.83;40.07;;;;;;;;;;4389469;32;318358;-81
2023/01/08 12:42:24;;;;;;;62.47;35.50;;;;;;;;;;4413037;32;318674;-80
2023/01/08 12:44:53;;;;;;;72.90;42.23;;;;;;;;;;4404922;32;318566;-82
2023/01/08 12:47:27;;;;;;;57.37;36.10;;;;;;;;;;4411133;32;317583;-81
2023/01/08 12:50:03;;;;;;;55.97;37.63;;;;;;;;;;4389827;32;419336;-80
2023/01/08 12:52:36;;;;;;;57.50;37.17;;;;;;;;;;4387018;32;324333;-79
2023/01/08 12:55:17;;;;;;;66.63;44.07;;;;;;;;;;4399234;32;318665;-81
2023/01/08 12:57:52;;;;;;;65.13;43.00;;;;;;;;;;4389374;32;318283;-80
2023/01/08 13:00:26;;;;;;;61.53;39.27;;;;;;;;;;4403162;32;317568;-81
2023/01/08 13:02:57;;;;;;;59.37;37.80;;;;;;;;;;4413728;32;390700;-84
2023/01/08 13:05:34;;;;;;;61.53;39.63;;;;;;;;;;4430562;32;317053;-90
2023/01/08 13:08:04;;;;;;;69.10;40.43;;;;;;;;;;4416828;32;416068;-82
2023/01/08 13:10:40;;;;;;;62.80;39.23;;;;;;;;;;4421511;32;318007;-81
2023/01/08 13:13:09;;;;;;;63.93;41.73;;;;;;;;;;4431739;32;316877;-82
2023/01/08 13:15:36;;;;;;;80.70;44.83;;;;;;;;;;4419291;32;331034;-84
2023/01/08 13:18:14;;;;;;;70.10;44.43;;;;;;;;;;4431643;32;316550;-80
2023/01/08 13:20:41;;;;;;;71.70;44.97;;;;;;;;;;4420431;32;318105;-84
2023/01/08 13:23:08;;;;;;;73.23;45.73;;;;;;;;;;4430041;32;317379;-80
2023/01/08 13:25:38;;;;;;;70.67;45.80;;;;;;;;;;4419003;32;333103;-79
2023/01/08 13:28:25;;;;;;;70.13;45.60;;;;;;;;;;4430853;32;317407;-81
2023/01/08 13:30:54;;;;;;;74.63;44.93;;;;;;;;;;4417120;32;415781;-84
2023/01/08 13:33:40;;;;;;;64.00;44.13;;;;;;;;;;4430746;32;316856;-83
2023/01/08 13:36:21;;;;;;;73.23;45.10;;;;;;;;;;4417129;32;417774;-80
2023/01/08 13:39:06;;;;;;;70.87;44.20;;;;;;;;;;4417927;32;317373;-81
2023/01/08 13:41:36;;;;;;;66.20;41.53;;;;;;;;;;4417697;32;317251;-84
2023/01/08 13:44:05;;;;;;;63.40;41.77;;;;;;;;;;4429663;32;354954;-82
2023/01/08 13:46:34;;;;;;;73.97;45.53;;;;;;;;;;4421064;32;316803;-80
2023/01/08 13:49:04;;;;;;;66.70;44.87;;;;;;;;;;4430168;32;316339;-82
2023/01/08 13:51:40;;;;;;;84.73;46.00;;;;;;;;;;4420843;32;318439;-80
2023/01/08 13:54:18;;;;;;;70.83;44.93;;;;;;;;;;4433835;32;318117;-81
2023/01/08 13:56:48;;;;;;;76.07;42.00;;;;;;;;;;4424747;32;318104;-77
2023/01/08 13:59:27;;;;;;;84.57;49.97;;;;;;;;;;4435158;32;317324;-81
2023/01/08 14:01:55;;;;;;;110.10;63.73;;;;;;;;;;4422534;32;415766;-81
2023/01/08 14:04:23;;;;;;;95.80;61.47;;;;;;;;;;4430755;32;318500;-84
2023/01/08 14:06:50;;;;;;;107.47;64.33;;;;;;;;;;4412471;32;318316;-78
2023/01/08 14:09:21;;;;;;;121.30;70.93;;;;;;;;;;4419681;32;350392;-81
2023/01/08 14:11:52;;;;;;;116.33;75.13;;;;;;;;;;4408398;32;319169;-78